Time;durP1;ratioP1;P1;durP2;ratioP2;P2;SDS_P1;SDS_P2;PMS_P1;PMS_P2;Temp;Humidity;BMP_temperature;BMP_pressure;BME280_temperature;BME280_humidity;BME280_pressure;Samples;Min_cycle;Max_cycle;Signal;HPM_P1;HPM_P2
2023/06/04 00:00:11;;;;;;;;;;;;;;;13.93;45.16;102062.13;5110491;28;19920;-74
2023/06/04 00:02:37;;;;;;;;;;;;;;;13.91;45.05;102063.94;5112419;28;19958;-74
2023/06/04 00:05:03;;;;;;;;;;;;;;;13.89;45.09;102060.41;5092079;28;19955;-74
2023/06/04 00:07:28;;;;;;;;;;;;;;;13.87;46.87;102059.59;5111228;28;19927;-74
2023/06/04 00:09:53;;;;;;;;;;;;;;;13.86;45.34;102056.94;5112557;28;20407;-75
2023/06/04 00:12:19;;;;;;;;;;;;;;;13.85;45.34;102055.19;5112670;28;20433;-74
2023/06/04 00:14:44;;;;;;;;;;;;;;;13.82;46.50;102058.75;5112549;28;19927;-74
2023/06/04 00:17:10;;;;;;;;;;;;;;;13.77;46.52;102050.88;5112166;28;19920;-75
2023/06/04 00:19:37;;;;;;;;;;;;;;;13.75;47.06;102047.34;5112156;28;19919;-74
2023/06/04 00:22:03;;;;;;;;;;;;;;;13.71;46.07;102053.59;5110879;28;20381;-74
2023/06/04 00:24:28;;;;;;;;;;;;;;;13.67;47.42;102046.56;5090490;28;19920;-74
2023/06/04 00:26:54;;;;;;;;;;;;;;;13.63;46.66;102050.19;5109464;28;19915;-75
2023/06/04 00:29:19;;;;;;;;;;;;;;;13.60;47.35;102050.25;5112412;28;19931;-75
2023/06/04 00:31:44;;;;;;;;;;;;;;;13.55;47.66;102047.66;5112054;28;19919;-70
2023/06/04 00:34:10;;;;;;;;;;;;;;;13.53;47.70;102051.25;5105762;28;19927;-70
2023/06/04 00:36:35;;;;;;;;;;;;;;;13.49;47.97;102041.53;5124938;27;19926;-70
2023/06/04 00:39:01;;;;;;;;;;;;;;;13.47;47.32;102048.66;5095862;28;19923;-70
2023/06/04 00:41:26;;;;;;;;;;;;;;;13.44;46.38;102046.03;5110991;28;19966;-70
2023/06/04 00:44:01;;;;;;;;;;;;;;;13.42;47.51;102050.50;5110586;28;19915;-70
2023/06/04 00:46:27;;;;;;;;;;;;;;;13.38;49.67;102049.69;5105730;28;19924;-70
2023/06/04 00:48:53;;;;;;;;;;;;;;;13.35;49.09;102041.72;5107483;28;19925;-70
2023/06/04 00:51:20;;;;;;;;;;;;;;;13.31;48.00;102051.53;5109191;28;19923;-70
2023/06/04 00:53:46;;;;;;;;;;;;;;;13.28;47.53;102046.28;5105773;28;19916;-70
2023/06/04 00:56:12;;;;;;;;;;;;;;;13.25;48.70;102043.63;5112073;28;19938;-69
2023/06/04 00:58:38;;;;;;;;;;;;;;;13.23;48.28;102040.09;5110600;28;19920;-70
2023/06/04 01:01:07;;;;;;;;;;;;;;;13.20;48.77;102045.44;5116078;27;20290;-70
2023/06/04 01:03:36;;;;;;;;;;;;;;;13.17;49.38;102044.63;5111972;28;20636;-70
2023/06/04 01:06:12;;;;;;;;;;;;;;;13.12;47.83;102042.88;5105539;28;20029;-69
2023/06/04 01:08:42;;;;;;;;;;;;;;;13.11;48.21;102053.56;5112886;28;19922;-70
2023/06/04 01:11:08;;;;;;;;;;;;;;;13.09;49.20;102050.91;5113106;28;19922;-70
2023/06/04 01:13:33;;;;;;;;;;;;;;;13.06;48.64;102055.41;5110793;28;19916;-70
2023/06/04 01:15:59;;;;;;;;;;;;;;;13.03;48.58;102053.66;5094994;28;19946;-70
2023/06/04 01:18:30;;;;;;;;;;;;;;;12.99;49.33;102057.25;5106831;28;19950;-70
2023/06/04 01:21:07;;;;;;;;;;;;;;;12.94;49.22;102060.88;5109419;28;20006;-70
2023/06/04 01:23:35;;;;;;;;;;;;;;;12.93;46.43;102059.09;5094406;28;20010;-70
2023/06/04 01:26:04;;;;;;;;;;;;;;;12.91;49.01;102057.34;5112760;28;19988;-70
2023/06/04 01:28:30;;;;;;;;;;;;;;;12.88;48.41;102054.72;5112624;28;19916;-70
2023/06/04 01:30:56;;;;;;;;;;;;;;;12.84;48.59;102052.13;5111341;28;20558;-74
2023/06/04 01:33:22;;;;;;;;;;;;;;;12.78;49.36;102053.06;5110919;28;19965;-74
2023/06/04 01:35:48;;;;;;;;;;;;;;;12.75;48.56;102052.22;5112346;28;19955;-74
2023/06/04 01:38:13;;;;;;;;;;;;;;;12.71;48.75;102046.09;5110960;28;19919;-74
2023/06/04 01:40:38;;;;;;;;;;;;;;;12.65;48.09;102059.41;5111148;28;19924;-74
2023/06/04 01:43:04;;;;;;;;;;;;;;;12.59;48.77;102055.06;5110803;28;19960;-75
2023/06/04 01:45:30;;;;;;;;;;;;;;;12.54;48.55;102054.22;5094206;28;19934;-75
2023/06/04 01:47:56;;;;;;;;;;;;;;;12.50;48.51;102048.97;5110712;28;20300;-74
2023/06/04 01:50:22;;;;;;;;;;;;;;;12.45;49.10;102049.00;5112474;28;19916;-74
2023/06/04 01:52:48;;;;;;;;;;;;;;;12.43;48.44;102054.31;5108722;28;19916;-75
2023/06/04 01:55:15;;;;;;;;;;;;;;;12.39;49.00;102049.97;5103342;28;20365;-75
2023/06/04 01:57:42;;;;;;;;;;;;;;;12.36;48.35;102060.59;5110535;28;20018;-70
2023/06/04 02:00:10;;;;;;;;;;;;;;;12.31;50.01;102049.13;5106298;28;19916;-70
2023/06/04 02:02:42;;;;;;;;;;;;;;;12.27;49.27;102056.25;5106498;28;20397;-70
2023/06/04 02:05:08;;;;;;;;;;;;;;;12.23;49.98;102054.53;5106270;28;19927;-70
2023/06/04 02:07:38;;;;;;;;;;;;;;;12.19;50.29;102051.91;5110913;28;19926;-70
2023/06/04 02:10:14;;;;;;;;;;;;;;;12.15;50.09;102056.38;5110720;28;19915;-70
2023/06/04 02:12:51;;;;;;;;;;;;;;;12.10;49.92;102058.19;5110758;28;19919;-70
2023/06/04 02:15:17;;;;;;;;;;;;;;;12.04;49.79;102055.56;5110863;28;20273;-70
2023/06/04 02:17:42;;;;;;;;;;;;;;;12.00;50.07;102048.56;5110500;28;19969;-70
2023/06/04 02:20:09;;;;;;;;;;;;;;;11.97;50.11;102048.59;5112200;28;19951;-70
2023/06/04 02:22:35;;;;;;;;;;;;;;;11.94;50.57;102048.59;5111904;28;19920;-70
2023/06/04 02:25:00;;;;;;;;;;;;;;;11.93;50.15;102049.50;5110657;28;19920;-70
2023/06/04 02:27:26;;;;;;;;;;;;;;;11.88;49.84;102061.91;5114187;28;20320;-70
2023/06/04 02:29:51;;;;;;;;;;;;;;;11.84;49.49;102061.00;5098015;28;19920;-70
2023/06/04 02:32:17;;;;;;;;;;;;;;;11.80;49.87;102056.66;5116378;28;20293;-70
2023/06/04 02:34:42;;;;;;;;;;;;;;;11.74;49.99;102054.00;5098042;28;19931;-70
2023/06/04 02:37:07;;;;;;;;;;;;;;;11.70;50.27;102061.13;5114985;28;20347;-70
2023/06/04 02:39:33;;;;;;;;;;;;;;;11.68;50.65;102059.38;5114803;28;19924;-70
2023/06/04 02:41:58;;;;;;;;;;;;;;;11.65;49.86;102060.28;5114830;28;19916;-70
2023/06/04 02:44:23;;;;;;;;;;;;;;;11.61;51.44;102056.75;5114444;28;19963;-70
2023/06/04 02:46:49;;;;;;;;;;;;;;;11.59;51.02;102063.84;5116356;28;19942;-70
2023/06/04 02:49:14;;;;;;;;;;;;;;;11.60;51.69;102062.09;5114426;28;19915;-70
2023/06/04 02:51:40;;;;;;;;;;;;;;;11.55;50.00;102062.13;5115989;28;19995;-70
2023/06/04 02:54:06;;;;;;;;;;;;;;;11.52;51.28;102064.81;5115704;28;19920;-70
2023/06/04 02:56:31;;;;;;;;;;;;;;;11.47;51.93;102061.25;5114707;28;20305;-70
2023/06/04 02:58:57;;;;;;;;;;;;;;;11.43;52.54;102064.84;5113788;28;19915;-70
2023/06/04 03:01:23;;;;;;;;;;;;;;;11.38;51.62;102066.66;5107984;28;19969;-70
2023/06/04 03:03:48;;;;;;;;;;;;;;;11.33;52.54;102060.47;5097013;28;19930;-70
2023/06/04 03:06:14;;;;;;;;;;;;;;;11.29;52.12;102064.91;5097488;28;19999;-69
2023/06/04 03:08:40;;;;;;;;;;;;;;;11.26;52.10;102064.06;5115746;28;19924;-70
2023/06/04 03:11:07;;;;;;;;;;;;;;;11.22;52.85;102067.59;5114483;28;19966;-70
2023/06/04 03:13:32;;;;;;;;;;;;;;;11.17;52.12;102065.84;5114155;28;20297;-69
2023/06/04 03:16:00;;;;;;;;;;;;;;;11.14;52.91;102063.22;5114264;28;19920;-69
2023/06/04 03:18:26;;;;;;;;;;;;;;;11.12;52.89;102064.97;5113967;28;19920;-69
2023/06/04 03:20:52;;;;;;;;;;;;;;;11.09;51.80;102057.06;5115561;28;20389;-69
2023/06/04 03:23:18;;;;;;;;;;;;;;;11.07;52.73;102058.81;5115268;28;20068;-69
2023/06/04 03:25:43;;;;;;;;;;;;;;;11.02;52.86;102060.63;5114080;28;19998;-69
2023/06/04 03:28:09;;;;;;;;;;;;;;;11.00;51.50;102065.03;5115267;28;19927;-69
2023/06/04 03:30:35;;;;;;;;;;;;;;;10.97;52.60;102060.63;5114006;28;20277;-69
2023/06/04 03:33:02;;;;;;;;;;;;;;;10.96;53.06;102064.19;5113825;28;19928;-69
2023/06/04 03:35:28;;;;;;;;;;;;;;;10.93;53.54;102060.69;5113994;28;19931;-69
2023/06/04 03:37:53;;;;;;;;;;;;;;;10.89;53.68;102058.91;5114392;28;19920;-70
2023/06/04 03:40:19;;;;;;;;;;;;;;;10.89;52.79;102058.91;5114992;28;20393;-69
2023/06/04 03:42:45;;;;;;;;;;;;;;;10.86;52.13;102058.94;5113453;28;20332;-69
2023/06/04 03:45:12;;;;;;;;;;;;;;;10.86;53.71;102064.22;5113510;28;19920;-69
2023/06/04 03:47:38;;;;;;;;;;;;;;;10.84;53.72;102060.69;5113537;28;19971;-69
2023/06/04 03:50:03;;;;;;;;;;;;;;;10.81;54.68;102060.72;5096587;28;19923;-69
2023/06/04 03:52:29;;;;;;;;;;;;;;;10.77;54.01;102055.41;5113489;28;19920;-69
2023/06/04 03:54:57;;;;;;;;;;;;;;;10.76;54.94;102056.31;5113364;28;20006;-69
2023/06/04 03:57:23;;;;;;;;;;;;;;;10.75;54.44;102056.28;5096309;28;20022;-69
2023/06/04 03:59:48;;;;;;;;;;;;;;;10.71;54.79;102058.09;5111802;28;19922;-73
2023/06/04 04:02:14;;;;;;;;;;;;;;;10.68;54.29;102060.75;5114656;28;19955;-73
2023/06/04 04:04:39;;;;;;;;;;;;;;;10.68;54.16;102062.50;5094796;28;19927;-73
2023/06/04 04:07:06;;;;;;;;;;;;;;;10.67;53.35;102058.09;5113190;28;20010;-73
2023/06/04 04:09:32;;;;;;;;;;;;;;;10.67;53.65;102061.63;5113014;28;20015;-73
2023/06/04 04:11:57;;;;;;;;;;;;;;;10.68;55.06;102067.78;5079459;28;19927;-74
2023/06/04 04:14:22;;;;;;;;;;;;;;;10.66;56.44;102059.00;5113110;28;19923;-74
2023/06/04 04:16:48;;;;;;;;;;;;;;;10.68;54.46;102055.47;5112963;28;19919;-73
2023/06/04 04:19:14;;;;;;;;;;;;;;;10.70;55.45;102060.72;5113080;28;20282;-74
2023/06/04 04:21:40;;;;;;;;;;;;;;;10.70;56.01;102056.31;5095954;28;20013;-74
2023/06/04 04:24:06;;;;;;;;;;;;;;;10.72;56.25;102066.91;5095602;28;19927;-74
2023/06/04 04:26:34;;;;;;;;;;;;;;;10.73;54.71;102066.00;5112782;28;20286;-74
2023/06/04 04:28:59;;;;;;;;;;;;;;;10.73;55.32;102058.97;5112462;28;19924;-74
2023/06/04 04:31:30;;;;;;;;;;;;;;;10.74;55.69;102062.50;5112758;28;19919;-73
2023/06/04 04:33:56;;;;;;;;;;;;;;;10.76;55.73;102071.31;5112209;28;19926;-73
2023/06/04 04:36:21;;;;;;;;;;;;;;;10.76;55.14;102058.94;5112825;28;20465;-74
2023/06/04 04:38:54;;;;;;;;;;;;;;;10.79;55.73;102060.72;5112441;28;19915;-74
2023/06/04 04:41:23;;;;;;;;;;;;;;;10.81;57.07;102060.72;5112664;28;19921;-73
2023/06/04 04:43:53;;;;;;;;;;;;;;;10.84;57.07;102064.22;5112215;28;19928;-73
2023/06/04 04:46:23;;;;;;;;;;;;;;;10.85;57.44;102062.44;5112441;28;19927;-74
2023/06/04 04:48:49;;;;;;;;;;;;;;;10.85;57.92;102059.81;5111210;28;19920;-74
2023/06/04 04:51:15;;;;;;;;;;;;;;;10.91;57.22;102065.09;5091638;28;19924;-74
2023/06/04 04:53:40;;;;;;;;;;;;;;;10.96;55.97;102063.31;5095406;28;20385;-73
2023/06/04 04:56:06;;;;;;;;;;;;;;;11.02;56.07;102062.38;5112052;28;19920;-73
2023/06/04 04:58:34;;;;;;;;;;;;;;;11.09;57.13;102065.00;5110974;28;19920;-74
2023/06/04 05:01:00;;;;;;;;;;;;;;;11.14;56.89;102059.69;5088079;28;20061;-74
2023/06/04 05:03:26;;;;;;;;;;;;;;;11.23;57.91;102072.03;5113185;28;19965;-73
2023/06/04 05:05:51;;;;;;;;;;;;;;;11.30;57.16;102079.03;5091503;28;19940;-73
2023/06/04 05:08:18;;;;;;;;;;;;;;;11.40;56.51;102079.00;5110365;28;19915;-73
2023/06/04 05:10:44;;;;;;;;;;;;;;;11.51;56.74;102083.38;5113319;28;20374;-73
2023/06/04 05:13:11;;;;;;;;;;;;;;;11.60;56.57;102080.66;5111499;28;19916;-74
2023/06/04 05:15:47;;;;;;;;;;;;;;;11.70;54.95;102078.84;5112362;28;20455;-74
2023/06/04 05:18:16;;;;;;;;;;;;;;;11.76;55.86;102074.34;5091823;28;19968;-73
2023/06/04 05:20:42;;;;;;;;;;;;;;;11.86;57.00;102067.19;5111691;28;19969;-75
2023/06/04 05:23:12;;;;;;;;;;;;;;;11.93;54.94;102076.03;5111289;28;20381;-74
2023/06/04 05:25:38;;;;;;;;;;;;;;;12.01;57.25;102076.84;5111571;28;20343;-74
2023/06/04 05:28:06;;;;;;;;;;;;;;;12.08;55.81;102075.03;5111389;28;19999;-74
2023/06/04 05:30:33;;;;;;;;;;;;;;;12.18;53.51;102074.06;5111280;28;19920;-74
2023/06/04 05:32:59;;;;;;;;;;;;;;;12.26;55.18;102070.44;5111313;28;20327;-74
2023/06/04 05:35:25;;;;;;;;;;;;;;;12.33;56.81;102073.91;5111137;28;19962;-74
2023/06/04 05:37:53;;;;;;;;;;;;;;;12.41;56.75;102072.09;5111240;28;19919;-74
2023/06/04 05:40:21;;;;;;;;;;;;;;;12.50;54.81;102072.88;5111145;28;19920;-70
2023/06/04 05:42:48;;;;;;;;;;;;;;;12.58;55.88;102065.69;5110986;28;19920;-70
2023/06/04 05:45:13;;;;;;;;;;;;;;;12.67;53.94;102076.22;5112256;28;19924;-70
2023/06/04 05:47:40;;;;;;;;;;;;;;;12.74;54.86;102077.06;5110856;28;20489;-70
2023/06/04 05:50:06;;;;;;;;;;;;;;;12.82;55.41;102072.53;5112416;28;20018;-70
2023/06/04 05:52:33;;;;;;;;;;;;;;;12.93;55.68;102075.91;5094045;28;20375;-70
2023/06/04 05:54:58;;;;;;;;;;;;;;;13.00;55.21;102074.94;5090693;28;19920;-70
2023/06/04 05:57:24;;;;;;;;;;;;;;;13.10;55.68;102078.38;5101091;28;20239;-70
2023/06/04 05:59:49;;;;;;;;;;;;;;;13.20;55.25;102073.81;5080367;28;20299;-70
2023/06/04 06:02:17;;;;;;;;;;;;;;;13.29;54.01;102071.09;5085249;28;19927;-70
2023/06/04 06:04:43;;;;;;;;;;;;;;;13.37;53.38;102074.50;5104694;28;19924;-70
2023/06/04 06:07:08;;;;;;;;;;;;;;;13.44;53.95;102077.97;5090479;28;19927;-69
2023/06/04 06:09:35;;;;;;;;;;;;;;;13.52;52.47;102078.72;5105524;28;19920;-70
2023/06/04 06:12:01;;;;;;;;;;;;;;;13.61;53.59;102081.28;5110961;28;19962;-70
2023/06/04 06:14:26;;;;;;;;;;;;;;;13.73;52.95;102085.53;5111842;28;20459;-69
2023/06/04 06:16:53;;;;;;;;;;;;;;;13.84;52.76;102080.91;5107096;28;19912;-69
2023/06/04 06:19:18;;;;;;;;;;;;;;;13.94;51.63;102084.31;5110497;28;19976;-70
2023/06/04 06:21:44;;;;;;;;;;;;;;;14.03;53.77;102083.31;5110584;28;19924;-70
2023/06/04 06:24:09;;;;;;;;;;;;;;;14.13;51.72;102082.25;5110208;28;19928;-70
2023/06/04 06:26:35;;;;;;;;;;;;;;;14.22;51.51;102095.41;5110374;28;19919;-70
2023/06/04 06:29:02;;;;;;;;;;;;;;;14.29;53.03;102082.84;5093381;28;19919;-70
2023/06/04 06:31:28;;;;;;;;;;;;;;;14.37;52.18;102087.16;5090408;28;19924;-70
2023/06/04 06:33:54;;;;;;;;;;;;;;;14.50;52.31;102087.78;5108263;28;19924;-70
2023/06/04 06:36:19;;;;;;;;;;;;;;;14.63;52.26;102091.13;5109135;28;19920;-70
2023/06/04 06:38:46;;;;;;;;;;;;;;;14.73;51.97;102092.72;5108995;28;19920;-70
2023/06/04 06:41:11;;;;;;;;;;;;;;;14.84;52.11;102093.41;5110228;28;20306;-70
2023/06/04 06:43:37;;;;;;;;;;;;;;;14.95;51.84;102089.63;5097737;28;19919;-70
2023/06/04 06:46:02;;;;;;;;;;;;;;;15.07;51.67;102094.72;5093166;28;19928;-70
2023/06/04 06:48:27;;;;;;;;;;;;;;;15.17;51.66;102093.63;5094216;28;19916;-70
2023/06/04 06:50:53;;;;;;;;;;;;;;;15.24;47.38;102094.38;5093832;28;19920;-70
2023/06/04 06:53:19;;;;;;;;;;;;;;;15.32;50.64;102100.41;5093163;28;20404;-70
2023/06/04 06:55:44;;;;;;;;;;;;;;;15.42;50.24;102098.44;5094975;28;19962;-70
2023/06/04 06:58:09;;;;;;;;;;;;;;;15.52;49.54;102104.44;5096016;28;20382;-71
2023/06/04 07:00:35;;;;;;;;;;;;;;;15.60;49.32;102100.72;5105082;28;19916;-70
2023/06/04 07:03:00;;;;;;;;;;;;;;;15.74;49.03;102102.22;5106821;28;19919;-71
2023/06/04 07:05:26;;;;;;;;;;;;;;;15.89;49.02;102100.03;5104156;28;19930;-71
2023/06/04 07:07:52;;;;;;;;;;;;;;;16.05;48.58;102103.22;5110210;28;19926;-71
2023/06/04 07:10:17;;;;;;;;;;;;;;;16.16;48.02;102102.97;5111172;28;19916;-71
2023/06/04 07:12:43;;;;;;;;;;;;;;;16.31;48.77;102101.69;5113426;28;20924;-71
2023/06/04 07:15:09;;;;;;;;;;;;;;;16.43;48.10;102105.84;5115144;28;20014;-71
2023/06/04 07:17:34;;;;;;;;;;;;;;;16.52;47.86;102102.94;5111304;28;20372;-70
2023/06/04 07:20:00;;;;;;;;;;;;;;;16.64;47.63;102107.06;5115084;28;20003;-70
2023/06/04 07:22:25;;;;;;;;;;;;;;;16.72;46.98;102105.94;5115370;28;19916;-71
2023/06/04 07:24:51;;;;;;;;;;;;;;;16.84;47.07;102103.88;5113644;28;19930;-70
2023/06/04 07:27:16;;;;;;;;;;;;;;;16.94;45.54;102100.91;5113653;28;20053;-70
2023/06/04 07:29:45;;;;;;;;;;;;;;;17.07;44.44;102106.78;5113444;28;19931;-71
2023/06/04 07:32:10;;;;;;;;;;;;;;;17.17;45.82;102104.72;5113784;28;19916;-70
2023/06/04 07:34:37;;;;;;;;;;;;;;;17.29;45.64;102108.84;5113108;28;20410;-70
2023/06/04 07:37:03;;;;;;;;;;;;;;;17.42;45.20;102105.72;5113477;28;19915;-70
2023/06/04 07:39:28;;;;;;;;;;;;;;;17.56;44.68;102101.78;5114825;28;19916;-70
2023/06/04 07:41:53;;;;;;;;;;;;;;;17.71;45.02;102103.09;5094417;28;20405;-70
2023/06/04 07:44:19;;;;;;;;;;;;;;;17.85;44.55;102100.84;5102178;28;19962;-70
2023/06/04 07:46:44;;;;;;;;;;;;;;;17.97;44.23;102100.47;5114711;28;19922;-71
2023/06/04 07:49:10;;;;;;;;;;;;;;;18.15;43.87;102109.72;5114346;28;19923;-70
2023/06/04 07:51:35;;;;;;;;;;;;;;;18.28;43.37;102110.19;5098395;28;20073;-71
2023/06/04 07:54:01;;;;;;;;;;;;;;;18.37;42.88;102103.59;5111324;28;20393;-70
2023/06/04 07:56:27;;;;;;;;;;;;;;;18.48;43.05;102106.81;5112725;28;19981;-71
2023/06/04 07:58:52;;;;;;;;;;;;;;;18.60;42.76;102106.38;5110861;27;20018;-71
2023/06/04 08:01:18;;;;;;;;;;;;;;;18.75;41.98;102109.47;5103997;28;19927;-71
2023/06/04 08:03:43;;;;;;;;;;;;;;;18.84;41.89;102101.97;5113381;27;20026;-71
2023/06/04 08:06:09;;;;;;;;;;;;;;;18.98;41.64;102105.97;5113137;28;19952;-71
2023/06/04 08:08:35;;;;;;;;;;;;;;;19.12;41.02;102103.63;5114565;28;19965;-71
2023/06/04 08:11:00;;;;;;;;;;;;;;;19.22;40.48;102109.53;5113305;28;20294;-71
2023/06/04 08:13:28;;;;;;;;;;;;;;;19.28;39.31;102104.78;5095689;28;19962;-71
2023/06/04 08:15:54;;;;;;;;;;;;;;;19.31;39.07;102103.78;5096766;28;19920;-71
2023/06/04 08:18:19;;;;;;;;;;;;;;;19.40;40.00;102106.13;5114254;28;19919;-71
2023/06/04 08:20:44;;;;;;;;;;;;;;;19.52;39.39;102104.78;5113187;28;19918;-71
2023/06/04 08:23:10;;;;;;;;;;;;;;;19.63;39.62;102115.09;5112816;28;19916;-71
2023/06/04 08:25:35;;;;;;;;;;;;;;;19.74;39.49;102112.91;5114174;28;20039;-71
2023/06/04 08:28:01;;;;;;;;;;;;;;;19.87;38.54;102111.47;5113113;28;19923;-71
2023/06/04 08:30:27;;;;;;;;;;;;;;;20.00;38.42;102110.97;5114192;28;19941;-71
2023/06/04 08:32:52;;;;;;;;;;;;;;;20.13;37.41;102109.53;5112854;28;19916;-71
2023/06/04 08:35:18;;;;;;;;;;;;;;;20.26;38.01;102108.06;5114626;28;19927;-72
2023/06/04 08:37:43;;;;;;;;;;;;;;;20.41;36.81;102109.22;5113927;28;20008;-72
2023/06/04 08:40:09;;;;;;;;;;;;;;;20.54;37.44;102115.81;5102130;28;19916;-73
2023/06/04 08:42:39;;;;;;;;;;;;;;;20.68;37.23;102112.56;5097332;28;20332;-72
2023/06/04 08:45:10;;;;;;;;;;;;;;;20.86;36.64;102105.47;5095524;28;19920;-72
2023/06/04 08:47:36;;;;;;;;;;;;;;;21.01;35.17;102106.59;5096410;28;19916;-72
2023/06/04 08:50:02;;;;;;;;;;;;;;;21.11;36.30;102110.63;5095059;28;19923;-72
2023/06/04 08:52:28;;;;;;;;;;;;;;;21.20;34.63;102109.34;5109836;28;20449;-71
2023/06/04 08:54:54;;;;;;;;;;;;;;;21.26;35.86;102104.56;5096121;28;19955;-73
2023/06/04 08:57:20;;;;;;;;;;;;;;;21.39;33.89;102112.97;5097560;28;20048;-72
2023/06/04 08:59:46;;;;;;;;;;;;;;;21.39;34.52;102114.75;5105244;28;20007;-72
2023/06/04 09:02:12;;;;;;;;;;;;;;;21.45;34.05;102114.47;5111308;28;19916;-72
2023/06/04 09:04:39;;;;;;;;;;;;;;;21.63;34.18;102121.69;5105450;28;19924;-72
2023/06/04 09:07:05;;;;;;;;;;;;;;;21.77;32.90;102115.63;5113454;28;19981;-72
2023/06/04 09:09:31;;;;;;;;;;;;;;;21.86;33.77;102117.88;5113304;28;20366;-71
2023/06/04 09:11:57;;;;;;;;;;;;;;;21.96;33.03;102110.22;5113485;28;19919;-72
2023/06/04 09:14:22;;;;;;;;;;;;;;;22.05;34.00;102116.97;5113085;28;19926;-72
2023/06/04 09:16:52;;;;;;;;;;;;;;;22.14;33.68;102119.19;5108085;28;19927;-72
2023/06/04 09:19:18;;;;;;;;;;;;;;;22.21;30.69;102117.97;5111705;28;19916;-72
2023/06/04 09:21:48;;;;;;;;;;;;;;;22.33;32.84;102116.50;5113388;28;19962;-72
2023/06/04 09:24:13;;;;;;;;;;;;;;;22.49;30.88;102111.16;5111804;28;19980;-72
2023/06/04 09:26:38;;;;;;;;;;;;;;;22.58;30.21;102112.53;5113298;28;20508;-72
2023/06/04 09:29:05;;;;;;;;;;;;;;;22.66;30.04;102115.69;5111725;28;19919;-72
2023/06/04 09:31:36;;;;;;;;;;;;;;;22.71;31.82;102113.63;5113114;28;19938;-72
2023/06/04 09:34:02;;;;;;;;;;;;;;;22.80;30.73;102115.84;5111545;28;19973;-72
2023/06/04 09:36:31;;;;;;;;;;;;;;;22.98;29.39;102118.53;5112860;28;20381;-73
2023/06/04 09:38:56;;;;;;;;;;;;;;;23.10;30.43;102116.03;5113059;28;19926;-73
2023/06/04 09:41:22;;;;;;;;;;;;;;;23.23;31.89;102124.34;5111508;28;19919;-73
2023/06/04 09:43:47;;;;;;;;;;;;;;;23.33;31.88;102111.19;5111558;28;19920;-73
2023/06/04 09:46:17;;;;;;;;;;;;;;;23.36;28.87;102111.88;5094493;28;19924;-74
2023/06/04 09:48:43;;;;;;;;;;;;;;;23.40;30.03;102112.59;5098417;28;19916;-73
2023/06/04 09:51:09;;;;;;;;;;;;;;;23.55;30.40;102111.75;5112670;28;19924;-73
2023/06/04 09:53:34;;;;;;;;;;;;;;;23.61;29.45;102107.81;5111295;28;20014;-73
2023/06/04 09:56:01;;;;;;;;;;;;;;;23.69;27.79;102104.66;5112694;28;20016;-72
2023/06/04 09:58:29;;;;;;;;;;;;;;;23.85;30.36;102116.38;5110048;28;19922;-73
2023/06/04 10:00:56;;;;;;;;;;;;;;;23.99;29.37;102112.91;5086206;28;19930;-73
2023/06/04 10:03:25;;;;;;;;;;;;;;;24.09;29.22;102110.53;5112297;28;19915;-73
2023/06/04 10:05:52;;;;;;;;;;;;;;;24.10;29.42;102101.44;5105800;28;19927;-73
2023/06/04 10:08:18;;;;;;;;;;;;;;;24.14;29.62;102105.72;5112381;28;19915;-74
2023/06/04 10:10:46;;;;;;;;;;;;;;;24.21;28.05;102107.97;5112283;28;19926;-74
2023/06/04 10:13:16;;;;;;;;;;;;;;;24.37;28.30;102101.63;5111920;28;19970;-74
2023/06/04 10:15:42;;;;;;;;;;;;;;;24.49;28.32;102110.88;5110730;28;20323;-73
2023/06/04 10:18:09;;;;;;;;;;;;;;;24.59;27.15;102103.94;5111917;28;19963;-74
2023/06/04 10:20:35;;;;;;;;;;;;;;;24.65;26.52;102095.41;5112032;28;19920;-74
2023/06/04 10:23:00;;;;;;;;;;;;;;;24.77;28.59;102100.09;5112183;28;19919;-74
2023/06/04 10:25:26;;;;;;;;;;;;;;;24.91;28.20;102104.66;5110373;28;20323;-74
2023/06/04 10:27:51;;;;;;;;;;;;;;;25.01;26.14;102107.66;5110630;28;19971;-74
2023/06/04 10:30:17;;;;;;;;;;;;;;;25.12;26.57;102102.41;5111920;28;19919;-73
2023/06/04 10:32:42;;;;;;;;;;;;;;;25.21;27.09;102096.44;5111771;28;20005;-73
2023/06/04 10:35:08;;;;;;;;;;;;;;;25.39;25.30;102098.94;5112224;28;19923;-73
2023/06/04 10:37:33;;;;;;;;;;;;;;;25.51;27.81;102099.03;5110423;28;20394;-73
2023/06/04 10:39:59;;;;;;;;;;;;;;;25.62;27.09;102090.19;5110548;28;19977;-73
2023/06/04 10:42:25;;;;;;;;;;;;;;;25.69;25.98;102098.78;5111587;28;19927;-74
2023/06/04 10:44:51;;;;;;;;;;;;;;;25.67;25.74;102104.34;5111534;28;19927;-73
2023/06/04 10:47:23;;;;;;;;;;;;;;;25.81;25.33;102105.25;5111988;28;20259;-73
2023/06/04 10:49:53;;;;;;;;;;;;;;;25.82;24.50;102101.59;5116175;28;19928;-72
2023/06/04 10:52:18;;;;;;;;;;;;;;;25.87;23.95;102100.31;5115595;28;20430;-73
2023/06/04 10:54:45;;;;;;;;;;;;;;;26.00;25.74;102096.78;5115875;28;20019;-73
2023/06/04 10:57:15;;;;;;;;;;;;;;;26.12;25.55;102106.81;5115644;28;19916;-73
2023/06/04 10:59:40;;;;;;;;;;;;;;;26.22;23.90;102102.50;5111505;28;19938;-73
2023/06/04 11:02:06;;;;;;;;;;;;;;;26.34;24.68;102104.38;5110152;28;20401;-73
2023/06/04 11:04:32;;;;;;;;;;;;;;;26.49;26.14;102104.31;5112960;28;19924;-74
2023/06/04 11:07:01;;;;;;;;;;;;;;;26.54;24.30;102102.16;5114088;28;19916;-74
2023/06/04 11:09:27;;;;;;;;;;;;;;;26.66;25.89;102103.16;5115260;28;19977;-73
2023/06/04 11:11:56;;;;;;;;;;;;;;;26.84;26.52;102101.84;5096075;28;20049;-74
2023/06/04 11:14:21;;;;;;;;;;;;;;;27.08;25.26;102090.19;5093022;28;20380;-74
2023/06/04 11:16:47;;;;;;;;;;;;;;;27.23;24.94;102098.16;5108788;28;19919;-71
2023/06/04 11:19:12;;;;;;;;;;;;;;;27.16;26.03;102087.81;5115316;28;20007;-70
2023/06/04 11:21:37;;;;;;;;;;;;;;;27.17;24.22;102079.53;5113748;28;19955;-69
2023/06/04 11:24:03;;;;;;;;;;;;;;;27.26;22.66;102086.19;5114935;28;20375;-68
2023/06/04 11:26:38;;;;;;;;;;;;;;;27.37;23.63;102082.69;5113478;28;19924;-72
2023/06/04 11:29:07;;;;;;;;;;;;;;;27.36;22.74;102089.97;5113670;28;20397;-73
2023/06/04 11:31:42;;;;;;;;;;;;;;;27.41;23.42;102085.06;5102972;28;20383;-70
2023/06/04 11:34:08;;;;;;;;;;;;;;;27.48;24.44;102073.75;5100014;28;19915;-71
2023/06/04 11:36:35;;;;;;;;;;;;;;;27.54;25.22;102081.44;5115031;28;20049;-72
2023/06/04 11:39:02;;;;;;;;;;;;;;;27.55;25.05;102084.06;5114664;28;19927;-71
2023/06/04 11:41:28;;;;;;;;;;;;;;;27.59;23.37;102090.13;5114902;28;20006;-72
2023/06/04 11:43:55;;;;;;;;;;;;;;;27.70;24.39;102082.03;5114473;28;20373;-71
2023/06/04 11:46:20;;;;;;;;;;;;;;;27.74;25.07;102071.78;5114944;28;20377;-72
2023/06/04 11:48:46;;;;;;;;;;;;;;;27.80;24.60;102068.59;5113348;28;20055;-88
2023/06/04 11:51:11;;;;;;;;;;;;;;;28.00;24.08;102073.44;5114490;28;20342;-70
2023/06/04 11:53:38;;;;;;;;;;;;;;;28.05;23.04;102071.22;5114343;28;19920;-70
2023/06/04 11:56:04;;;;;;;;;;;;;;;28.08;24.59;102076.44;5114388;28;19920;-69
2023/06/04 11:58:29;;;;;;;;;;;;;;;28.15;23.75;102067.81;5112050;28;19915;-73
2023/06/04 12:00:55;;;;;;;;;;;;;;;28.34;22.14;102073.56;5113014;28;20236;-70
2023/06/04 12:03:31;;;;;;;;;;;;;;;28.45;24.63;102061.84;5114159;28;19916;-71
2023/06/04 12:05:56;;;;;;;;;;;;;;;28.53;23.65;102056.66;5106691;28;19924;-72
2023/06/04 12:08:21;;;;;;;;;;;;;;;28.67;23.81;102058.28;5112566;28;20311;-72
2023/06/04 12:10:47;;;;;;;;;;;;;;;28.92;23.49;102055.31;5112894;28;20394;-74
2023/06/04 12:13:12;;;;;;;;;;;;;;;29.02;23.54;102054.59;5112347;28;20561;-72
2023/06/04 12:15:37;;;;;;;;;;;;;;;29.08;21.99;102048.66;5113455;28;19919;-73
2023/06/04 12:18:04;;;;;;;;;;;;;;;28.93;23.75;102058.91;5113773;28;20453;-73
2023/06/04 12:20:37;;;;;;;;;;;;;;;28.85;23.48;102062.25;5114191;28;19991;-73
2023/06/04 12:23:03;;;;;;;;;;;;;;;28.95;23.96;102057.78;5113963;28;20346;-74
2023/06/04 12:25:28;;;;;;;;;;;;;;;29.09;24.20;102054.00;5114019;28;19962;-73
2023/06/04 12:27:54;;;;;;;;;;;;;;;29.33;23.12;102055.72;5113904;28;20014;-72
2023/06/04 12:30:19;;;;;;;;;;;;;;;29.40;22.73;102053.31;5112612;28;20345;-73